METAR / TAF

Die METAR- und TAF-Liste ist aus technischen Gründen (Verfügbarkeit, Update-Zyklen) nicht für ein Meteo-Briefing gedacht. Benutzen Sie stattdessen skybriefing der Skyguide  oder das TAMSI (MeteoSchweiz-eigene Meteo Selfbriefing-Plattform für Firmen aus der Aviatik; Anfragen über das

Kontaktformular

METAR Schweiz

METAR     LSZH 272150Z VRB01KT 7000 -RA FEW003 OVC011 02/01 Q1013
               TEMPO 4000 SNRA BKN009=
METAR     LSZH 272220Z 08002KT 6000 -RASN FEW004 SCT007 OVC011
               02/01 Q1013 TEMPO 3500 BKN009=
METAR     LSGG 272150Z AUTO 02003KT 9999 -RA FEW013 BKN040 04/03
               Q1013 NOSIG=
METAR     LSGG 272220Z AUTO 05003KT 9999 -DZ FEW012 BKN052 04/03
               Q1013 NOSIG=
METAR     LFSB 272200Z 35007KT 4000 -RA SCT007 BKN012 BKN020 04/03
               Q1014 TEMPO BKN005=
METAR     LSZB 272150Z AUTO 31004KT 9999 -RASN BKN/// 02/01 Q1012=
METAR     LSZB 272220Z AUTO 30005KT 9999 -RASN BKN/// 02/01 Q1012=
METAR     LSZA 272150Z AUTO 36013G25KT 300V040 9999 -RA SCT033
               BKN041 BKN046 07/04 Q1005=
METAR     LSZA 272220Z AUTO 20004KT 110V270 9000 RA FEW030 SCT035
               BKN040 07/06 Q1005=
METAR     LSZG 272150Z AUTO 12002KT 9999 -RA SCT035 BKN042 03/02
               Q1013=
METAR     LSZG 272220Z AUTO 07001KT 7000 -RA BKN010 BKN017 03/02
               Q1013=
METAR     LSZR 272150Z AUTO 28005KT 230V310 9000 -SN BKN/// 01/01
               Q1013=
METAR     LSZR 272220Z AUTO 29006KT 6000 -SN BKN/// 01/01 Q1012=
METAR     LSGS 272150Z AUTO 26009KT 7000 -RA OVC005 OVC012 04/02
               Q1010=
METAR     LSGS 272220Z AUTO 27007KT 210V300 6000 -RA BKN/// 04/02
               Q1010=
METAR     LSGC 272150Z AUTO VRB02KT 1200 -FZFG VV014 M00/M01 Q1011
               RESN=
METAR     LSGC 272220Z AUTO VRB03KT 1400 SN BKN/// M00/M01 Q1011=
METAR     LSZC 272150Z AUTO VRB04KT 1600 SN BKN/// 00/00 Q1013=
METAR     LSZC 272220Z AUTO VRB03KT 1100 SN BKN/// 00/00 Q1013=
METAR RRA LSZL 272150Z AUTO 00000KT 8000NDV RA FEW020 BKN026 OVC032
               06/05 Q1007 RMK=
METAR     LSZL 272220Z NIL=
METAR     LSZS 272150Z AUTO 33004KT 300V010 9999 -SN VV015 M02/M04
               Q1005=
METAR     LSZS 272220Z AUTO 03010KT 9999 -SN BKN/// M02/M05 Q1004=
METAR     LSMA 272150Z NIL=
METAR     LSMA 272220Z NIL=
METAR     LSMD 272150Z AUTO 01001KT 5000NDV -RASN BKN005 BKN010
               BKN014 01/00 Q1013 RMK=
METAR     LSMD 272220Z NIL=
METAR     LSME 272150Z NIL=
METAR     LSME 272220Z NIL=
METAR RRA LSMM 272150Z AUTO 25003KT 220V320 5000NDV -RASN SCT006
               BKN009 BKN015 00/00 Q1012 RMK=
METAR     LSMM 272220Z NIL=
METAR RRA LSMP 272150Z AUTO 04004KT 010V070 6000NDV -RA FEW005
               BKN009 BKN015 03/02 Q1013 RMK=
METAR     LSMP 272220Z NIL=
METAR     LSMS 272150Z AUTO 26009KT 7000 -RA OVC005 OVC012 04/02
               Q1010=
METAR     LSMS 272220Z AUTO 27007KT 210V300 6000 -RA BKN/// 04/02
               Q1010=
Aktualisiert am Freitag, 28. April 2017, 00:37 Uhr

TAF Schweiz

TAF     LSZH 272025Z 2721/2903 03004KT 8000 RA FEW005 SCT012 BKN020
             TX07/2814Z TN01/2805Z BECMG 2721/2801 3000 RASN
             BKN009 TEMPO 2802/2806 1200 SN BKN004 TEMPO 2807/2811
             34010KT BECMG 2806/2810 7000 SHRA SCT020TCU BKN030
             TEMPO 2813/2820 NSW BECMG 2819/2821 9999 SCT050=
TAF     LSGG 272025Z 2721/2903 07005KT 9999 -SHRA FEW010 SCT020
             BKN040 TX10/2815Z TN03/2805Z PROB40 TEMPO 2721/2803
             4500 SHRAGS SCT020TCU BKN040 TEMPO 2815/2818 SCT020
             SCT040 BECMG 2823/2902 CAVOK=
TAF AAC LFSB 272126Z 2721/2818 34005KT 9999 SCT010 BKN025 TEMPO
             2721/2806 4000 -RA BKN005 PROB40 TEMPO 2810/2818
             -SHRA SCT020TCU=
TAF AAA LFSB 272104Z 2721/2818 34005KT 9999 SCT015 BKN025 TEMPO
             2721/2806 4000 -RA BKN010 PROB40 TEMPO 2810/2818
             -SHRA SCT020TCU=
TAF     LFSB 271700Z 2718/2818 34005KT 9999 SCT015 BKN025 PROB40
             TEMPO 2718/2721 12005KT 4000 -RA BR BKN012 TEMPO
             2721/2806 -RA BKN012 PROB40 TEMPO 2810/2818 -SHRA
             SCT020TCU=
TAF AAC LSGS 271916Z 2719/2724 CNL=
TAF     LSGS 271425Z 2715/2724 25015KT 9999 SCT020 OVC070 BECMG
             2720/2722 VRB03KT=
TAF AAI LSZA 271954Z 2719/2724 CNL=
TAF     LSZA 271425Z 2715/2724 VRB03KT 8000 -SHRA BKN025 OVC040
             TEMPO 2715/2724 4000 SHRA BKN012TCU PROB30 TEMPO
             2715/2724 3000 TSRA SCT020CB BECMG 2717/2720 01010KT=
TAF AAD LSZB 271954Z 2719/2724 CNL=
TAF     LSZB 271425Z 2715/2724 33007KT 9999 -DZ FEW014 BKN020 TEMPO
             2716/2724 SHRA BKN012 PROB30 TEMPO 2719/2724 4000
             RASN BKN009=
TAF AAE LSZG 271954Z 2719/2724 CNL=
TAF     LSZG 271425Z 2715/2724 VRB03KT 9999 FEW010 BKN025 TEMPO
             2715/2724 RA BKN014 PROB40 TEMPO 2718/2724 4000 SHRA=
TAF     LSZL 271725Z 2718/2803 VRB03KT 9999 RA FEW015 BKN030 TEMPO
             2718/2803 4500 SHRA SCT030TCU PROB40 TEMPO 2718/2803
             2500 TSRA FEW030CB=
TAF AAF LSZR 271954Z 2719/2724 CNL=
TAF     LSZR 271425Z 2715/2724 28003KT 9999 -RA BKN015 TEMPO
             2715/2724 RA BKN012 PROB30 TEMPO 2719/2724 3000 RASN
             BKN008=
TAF AAB LSGC 271915Z 2719/2724 CNL=
TAF     LSGC 271425Z 2715/2724 01004KT 8000 FEW005 BKN009 BKN015
             TEMPO 2720/2724 2000 SN BKN004=
TAF AAH LSZC 271954Z 2719/2724 CNL=
TAF AAA LSZC 271839Z 2718/2724 VRB03KT 9999 RASN FEW008 BKN012
             PROB40 2720/2724 0800 SN VV003=
TAF     LSZC 271425Z 2715/2724 VRB03KT 9999 RA FEW008 BKN012 TEMPO
             2715/2724 NSW BKN015 PROB40 2720/2724 4000 RASN
             BKN008 PROB30 2722/2724 0800 SN VV003=
TAF AAG LSZS 271954Z 2719/2724 CNL=
TAF     LSZS 271425Z 2715/2724 VRB03KT 2500 -SN BKN010 TX01/2713Z
             TEMPO 2715/2724 0800 SN VV003 PROB40 TEMPO 2718/2724
             0500 +SN VV002 PROB30 TEMPO 2721/2724 TSSN SCT010CB=
TAF AAB LSMA 271837Z 2718/2823 VRB03KT 3000 RASN FEW006 BKN008
             TEMPO 2719/2823 NSW TEMPO 2719/2810 0800 SN VV003
             PROB40 TEMPO 2721/2809 0500 +SN VV002=
TAF     LSMA 271625Z 2717/2823 VRB03KT 9999 RA FEW008 BKN012 TEMPO
             2717/2823 NSW TEMPO 2721/2811 2000 RASN BKN008 PROB40
             TEMPO 2800/2810 0800 SN VV003 PROB40 TEMPO 2812/2823
             SHRA SCT012TCU=
TAF AAC LSMD 272023Z 2720/2823 VRB04KT 2500 RASN FEW005 BKN008
             TEMPO 2721/2812 RA PROB40 TEMPO 2721/2809 0800 SN
             VV003 BECMG 2810/2812 NSW PROB40 TEMPO 2810/2823
             SHGSRA SCT012TCU=
TAF     LSMD 271625Z 2717/2823 VRB04KT 9999 -RA FEW008 BKN012 TEMPO
             2717/2812 RA TEMPO 2721/2812 2000 RASN BKN008 PROB40
             TEMPO 2800/2809 0800 SN VV003 TEMPO 2812/2823 SHRA
             SCT012TCU=
TAF AAD LSME 272022Z 2720/2823 VRB04KT 2500 RASN FEW005 BKN008
             TEMPO 2721/2812 RA PROB40 TEMPO 2721/2809 0800 SN
             VV003 BECMG 2810/2812 NSW PROB40 TEMPO 2810/2823
             SHGSRA SCT012TCU=
TAF     LSME 271625Z 2717/2823 VRB04KT 9999 -RA FEW008 BKN012 TEMPO
             2717/2812 RA TEMPO 2721/2812 2000 RASN BKN008 PROB40
             TEMPO 2800/2809 0800 SN VV003 TEMPO 2812/2823 SHRA
             SCT012TCU=
TAF AAA LSMM 271836Z 2718/2823 VRB03KT 3000 RASN FEW006 BKN008
             TEMPO 2719/2823 NSW TEMPO 2719/2810 0800 SN VV003
             PROB40 TEMPO 2721/2809 0500 +SN VV002=
TAF     LSMM 271625Z 2717/2823 VRB03KT 9999 RA FEW006 BKN010 TEMPO
             2717/2823 NSW TEMPO 2721/2811 2000 RASN BKN008 PROB40
             TEMPO 2800/2810 0800 SN VV003 PROB40 TEMPO 2812/2823
             SHRA SCT012TCU=
TAF     LSMP 271625Z 2717/2823 09004KT 9999 -SHRA FEW010 SCT015
             BKN020=
Aktualisiert am Freitag, 28. April 2017, 00:09 Uhr